sensor_id;sensor_type;location;lat;lon;timestamp;P1;durP1;ratioP1;P2;durP2;ratioP2
77788;SDS011;70537;44.384;0.512;2023-06-26T00:00:20;6.45;;;3.70;;
77788;SDS011;70537;44.384;0.512;2023-06-26T00:02:45;8.40;;;4.55;;
77788;SDS011;70537;44.384;0.512;2023-06-26T00:05:11;6.72;;;4.10;;
77788;SDS011;70537;44.384;0.512;2023-06-26T00:07:38;8.05;;;4.68;;
77788;SDS011;70537;44.384;0.512;2023-06-26T00:10:04;7.15;;;4.38;;
77788;SDS011;70537;44.384;0.512;2023-06-26T00:12:31;7.68;;;4.13;;
77788;SDS011;70537;44.384;0.512;2023-06-26T00:14:57;5.68;;;3.88;;
77788;SDS011;70537;44.384;0.512;2023-06-26T00:17:23;6.78;;;3.92;;
77788;SDS011;70537;44.384;0.512;2023-06-26T00:19:49;7.35;;;3.88;;
77788;SDS011;70537;44.384;0.512;2023-06-26T00:22:16;7.00;;;3.67;;
77788;SDS011;70537;44.384;0.512;2023-06-26T00:24:42;7.68;;;3.63;;
77788;SDS011;70537;44.384;0.512;2023-06-26T00:27:09;7.63;;;3.42;;
77788;SDS011;70537;44.384;0.512;2023-06-26T00:29:35;4.22;;;3.00;;
77788;SDS011;70537;44.384;0.512;2023-06-26T00:32:01;5.55;;;3.38;;
77788;SDS011;70537;44.384;0.512;2023-06-26T00:34:27;8.65;;;3.35;;
77788;SDS011;70537;44.384;0.512;2023-06-26T00:36:53;5.43;;;2.92;;
77788;SDS011;70537;44.384;0.512;2023-06-26T00:39:18;4.78;;;3.60;;
77788;SDS011;70537;44.384;0.512;2023-06-26T00:41:44;9.68;;;3.10;;
77788;SDS011;70537;44.384;0.512;2023-06-26T00:44:10;3.08;;;2.35;;
77788;SDS011;70537;44.384;0.512;2023-06-26T00:46:36;6.65;;;3.30;;
77788;SDS011;70537;44.384;0.512;2023-06-26T00:49:02;6.70;;;3.45;;
77788;SDS011;70537;44.384;0.512;2023-06-26T00:51:28;6.75;;;3.65;;
77788;SDS011;70537;44.384;0.512;2023-06-26T00:53:55;6.50;;;3.03;;
77788;SDS011;70537;44.384;0.512;2023-06-26T00:56:22;4.55;;;2.67;;
77788;SDS011;70537;44.384;0.512;2023-06-26T00:58:48;5.93;;;3.20;;
77788;SDS011;70537;44.384;0.512;2023-06-26T01:01:14;5.75;;;3.03;;
77788;SDS011;70537;44.384;0.512;2023-06-26T01:03:42;6.28;;;3.42;;
77788;SDS011;70537;44.384;0.512;2023-06-26T01:06:09;8.65;;;3.83;;
77788;SDS011;70537;44.384;0.512;2023-06-26T01:08:38;7.38;;;2.90;;
77788;SDS011;70537;44.384;0.512;2023-06-26T01:11:04;5.30;;;3.30;;
77788;SDS011;70537;44.384;0.512;2023-06-26T01:13:30;6.03;;;2.72;;
77788;SDS011;70537;44.384;0.512;2023-06-26T01:15:57;6.90;;;2.47;;
77788;SDS011;70537;44.384;0.512;2023-06-26T01:18:24;7.70;;;3.65;;
77788;SDS011;70537;44.384;0.512;2023-06-26T01:20:51;3.95;;;2.75;;
77788;SDS011;70537;44.384;0.512;2023-06-26T01:23:20;3.15;;;2.13;;
77788;SDS011;70537;44.384;0.512;2023-06-26T01:28:33;4.07;;;2.30;;
77788;SDS011;70537;44.384;0.512;2023-06-26T01:31:01;4.95;;;2.75;;
77788;SDS011;70537;44.384;0.512;2023-06-26T01:33:28;4.82;;;2.88;;
77788;SDS011;70537;44.384;0.512;2023-06-26T01:35:54;5.57;;;3.08;;
77788;SDS011;70537;44.384;0.512;2023-06-26T01:38:20;3.80;;;1.65;;
77788;SDS011;70537;44.384;0.512;2023-06-26T01:40:48;4.97;;;2.40;;
77788;SDS011;70537;44.384;0.512;2023-06-26T01:43:15;4.10;;;2.33;;
77788;SDS011;70537;44.384;0.512;2023-06-26T01:45:48;8.07;;;2.58;;
77788;SDS011;70537;44.384;0.512;2023-06-26T01:48:16;6.30;;;2.47;;
77788;SDS011;70537;44.384;0.512;2023-06-26T01:50:48;3.30;;;2.40;;
77788;SDS011;70537;44.384;0.512;2023-06-26T01:53:17;5.30;;;2.20;;
77788;SDS011;70537;44.384;0.512;2023-06-26T01:58:17;3.20;;;2.28;;
77788;SDS011;70537;44.384;0.512;2023-06-26T02:00:47;3.58;;;2.92;;
77788;SDS011;70537;44.384;0.512;2023-06-26T02:03:13;8.40;;;2.58;;
77788;SDS011;70537;44.384;0.512;2023-06-26T02:05:38;3.78;;;2.47;;
77788;SDS011;70537;44.384;0.512;2023-06-26T02:08:04;6.07;;;2.35;;
77788;SDS011;70537;44.384;0.512;2023-06-26T02:10:30;5.10;;;2.35;;
77788;SDS011;70537;44.384;0.512;2023-06-26T02:12:55;6.28;;;2.75;;
77788;SDS011;70537;44.384;0.512;2023-06-26T02:15:21;6.47;;;3.45;;
77788;SDS011;70537;44.384;0.512;2023-06-26T02:17:46;4.93;;;2.88;;
77788;SDS011;70537;44.384;0.512;2023-06-26T02:20:13;6.68;;;2.45;;
77788;SDS011;70537;44.384;0.512;2023-06-26T02:22:40;4.78;;;1.85;;
77788;SDS011;70537;44.384;0.512;2023-06-26T02:25:06;2.50;;;2.10;;
77788;SDS011;70537;44.384;0.512;2023-06-26T02:27:32;7.32;;;1.98;;
77788;SDS011;70537;44.384;0.512;2023-06-26T02:29:57;6.70;;;2.83;;
77788;SDS011;70537;44.384;0.512;2023-06-26T02:32:23;6.57;;;3.03;;
77788;SDS011;70537;44.384;0.512;2023-06-26T02:34:48;4.95;;;2.60;;
77788;SDS011;70537;44.384;0.512;2023-06-26T02:37:13;7.15;;;2.30;;
77788;SDS011;70537;44.384;0.512;2023-06-26T02:39:41;2.97;;;2.20;;
77788;SDS011;70537;44.384;0.512;2023-06-26T02:42:06;5.18;;;2.50;;
77788;SDS011;70537;44.384;0.512;2023-06-26T02:44:32;4.50;;;2.35;;
77788;SDS011;70537;44.384;0.512;2023-06-26T02:46:58;5.57;;;3.10;;
77788;SDS011;70537;44.384;0.512;2023-06-26T02:49:23;7.43;;;2.45;;
77788;SDS011;70537;44.384;0.512;2023-06-26T02:51:48;3.63;;;2.28;;
77788;SDS011;70537;44.384;0.512;2023-06-26T02:54:14;4.28;;;2.40;;
77788;SDS011;70537;44.384;0.512;2023-06-26T02:56:40;9.00;;;2.80;;
77788;SDS011;70537;44.384;0.512;2023-06-26T02:59:05;6.70;;;2.28;;
77788;SDS011;70537;44.384;0.512;2023-06-26T03:01:30;3.30;;;1.77;;
77788;SDS011;70537;44.384;0.512;2023-06-26T03:03:56;4.43;;;2.35;;
77788;SDS011;70537;44.384;0.512;2023-06-26T03:06:21;5.35;;;2.35;;
77788;SDS011;70537;44.384;0.512;2023-06-26T03:08:47;4.18;;;2.60;;
77788;SDS011;70537;44.384;0.512;2023-06-26T03:11:12;2.00;;;1.77;;
77788;SDS011;70537;44.384;0.512;2023-06-26T03:13:38;3.15;;;2.47;;
77788;SDS011;70537;44.384;0.512;2023-06-26T03:16:03;5.65;;;2.50;;
77788;SDS011;70537;44.384;0.512;2023-06-26T03:18:29;3.83;;;1.80;;
77788;SDS011;70537;44.384;0.512;2023-06-26T03:20:55;5.00;;;1.90;;
77788;SDS011;70537;44.384;0.512;2023-06-26T03:23:21;7.78;;;2.47;;
77788;SDS011;70537;44.384;0.512;2023-06-26T03:25:47;5.65;;;1.77;;
77788;SDS011;70537;44.384;0.512;2023-06-26T03:28:13;5.22;;;2.47;;
77788;SDS011;70537;44.384;0.512;2023-06-26T03:30:39;4.13;;;2.35;;
77788;SDS011;70537;44.384;0.512;2023-06-26T03:33:04;7.82;;;2.85;;
77788;SDS011;70537;44.384;0.512;2023-06-26T03:35:30;5.70;;;2.35;;
77788;SDS011;70537;44.384;0.512;2023-06-26T03:37:57;11.60;;;2.67;;
77788;SDS011;70537;44.384;0.512;2023-06-26T03:40:23;5.35;;;3.03;;
77788;SDS011;70537;44.384;0.512;2023-06-26T03:42:48;7.30;;;2.47;;
77788;SDS011;70537;44.384;0.512;2023-06-26T03:45:14;6.85;;;2.80;;
77788;SDS011;70537;44.384;0.512;2023-06-26T03:47:39;6.55;;;2.42;;
77788;SDS011;70537;44.384;0.512;2023-06-26T03:50:05;4.97;;;2.40;;
77788;SDS011;70537;44.384;0.512;2023-06-26T03:52:31;4.93;;;2.53;;
77788;SDS011;70537;44.384;0.512;2023-06-26T03:54:59;3.53;;;2.35;;
77788;SDS011;70537;44.384;0.512;2023-06-26T03:57:25;6.28;;;2.55;;
77788;SDS011;70537;44.384;0.512;2023-06-26T03:59:51;3.55;;;2.15;;
77788;SDS011;70537;44.384;0.512;2023-06-26T04:02:17;6.43;;;2.22;;
77788;SDS011;70537;44.384;0.512;2023-06-26T04:04:42;9.02;;;2.20;;
77788;SDS011;70537;44.384;0.512;2023-06-26T04:07:08;5.93;;;2.22;;
77788;SDS011;70537;44.384;0.512;2023-06-26T04:09:34;5.93;;;2.08;;
77788;SDS011;70537;44.384;0.512;2023-06-26T04:11:59;5.50;;;2.10;;
77788;SDS011;70537;44.384;0.512;2023-06-26T04:14:25;5.80;;;2.78;;
77788;SDS011;70537;44.384;0.512;2023-06-26T04:16:50;4.70;;;2.03;;
77788;SDS011;70537;44.384;0.512;2023-06-26T04:19:16;6.38;;;2.67;;
77788;SDS011;70537;44.384;0.512;2023-06-26T04:21:41;5.15;;;2.53;;
77788;SDS011;70537;44.384;0.512;2023-06-26T04:24:07;5.18;;;2.42;;
77788;SDS011;70537;44.384;0.512;2023-06-26T04:26:32;2.42;;;2.22;;
77788;SDS011;70537;44.384;0.512;2023-06-26T04:28:58;5.65;;;2.22;;
77788;SDS011;70537;44.384;0.512;2023-06-26T04:31:25;4.45;;;2.00;;
77788;SDS011;70537;44.384;0.512;2023-06-26T04:33:51;9.75;;;3.55;;
77788;SDS011;70537;44.384;0.512;2023-06-26T04:36:19;7.15;;;3.03;;
77788;SDS011;70537;44.384;0.512;2023-06-26T04:38:45;5.80;;;2.50;;
77788;SDS011;70537;44.384;0.512;2023-06-26T04:41:11;9.13;;;2.25;;
77788;SDS011;70537;44.384;0.512;2023-06-26T04:43:36;5.40;;;2.30;;
77788;SDS011;70537;44.384;0.512;2023-06-26T04:46:02;5.40;;;2.42;;
77788;SDS011;70537;44.384;0.512;2023-06-26T04:48:28;6.53;;;2.33;;
77788;SDS011;70537;44.384;0.512;2023-06-26T04:50:54;20.23;;;2.85;;
77788;SDS011;70537;44.384;0.512;2023-06-26T04:53:21;6.78;;;2.45;;
77788;SDS011;70537;44.384;0.512;2023-06-26T04:55:51;6.60;;;2.40;;
77788;SDS011;70537;44.384;0.512;2023-06-26T04:58:18;4.75;;;2.83;;
77788;SDS011;70537;44.384;0.512;2023-06-26T05:00:44;4.88;;;2.03;;
77788;SDS011;70537;44.384;0.512;2023-06-26T05:03:11;4.82;;;2.42;;
77788;SDS011;70537;44.384;0.512;2023-06-26T05:05:37;5.65;;;2.42;;
77788;SDS011;70537;44.384;0.512;2023-06-26T05:08:35;3.90;;;2.28;;
77788;SDS011;70537;44.384;0.512;2023-06-26T05:10:54;10.00;;;2.78;;
77788;SDS011;70537;44.384;0.512;2023-06-26T05:13:23;7.38;;;2.80;;
77788;SDS011;70537;44.384;0.512;2023-06-26T05:15:51;5.40;;;2.78;;
77788;SDS011;70537;44.384;0.512;2023-06-26T05:18:18;5.57;;;2.60;;
77788;SDS011;70537;44.384;0.512;2023-06-26T05:20:44;4.75;;;2.47;;
77788;SDS011;70537;44.384;0.512;2023-06-26T05:23:13;5.47;;;2.70;;
77788;SDS011;70537;44.384;0.512;2023-06-26T05:25:38;4.07;;;2.25;;
77788;SDS011;70537;44.384;0.512;2023-06-26T05:28:05;5.85;;;2.47;;
77788;SDS011;70537;44.384;0.512;2023-06-26T05:30:31;6.65;;;3.30;;
77788;SDS011;70537;44.384;0.512;2023-06-26T05:33:00;5.18;;;3.22;;
77788;SDS011;70537;44.384;0.512;2023-06-26T05:35:28;5.82;;;2.47;;
77788;SDS011;70537;44.384;0.512;2023-06-26T05:37:55;6.85;;;2.80;;
77788;SDS011;70537;44.384;0.512;2023-06-26T05:40:21;6.22;;;2.88;;
77788;SDS011;70537;44.384;0.512;2023-06-26T05:42:47;5.25;;;2.63;;
77788;SDS011;70537;44.384;0.512;2023-06-26T05:45:13;9.20;;;3.63;;
77788;SDS011;70537;44.384;0.512;2023-06-26T05:47:38;9.88;;;3.33;;
77788;SDS011;70537;44.384;0.512;2023-06-26T05:50:04;4.82;;;2.70;;
77788;SDS011;70537;44.384;0.512;2023-06-26T05:52:30;4.38;;;2.30;;
77788;SDS011;70537;44.384;0.512;2023-06-26T05:54:56;8.27;;;2.70;;
77788;SDS011;70537;44.384;0.512;2023-06-26T05:57:26;3.97;;;2.28;;
77788;SDS011;70537;44.384;0.512;2023-06-26T05:59:53;5.50;;;2.63;;
77788;SDS011;70537;44.384;0.512;2023-06-26T06:02:18;6.78;;;2.78;;
77788;SDS011;70537;44.384;0.512;2023-06-26T06:04:44;6.05;;;3.17;;
77788;SDS011;70537;44.384;0.512;2023-06-26T06:07:10;10.60;;;3.50;;
77788;SDS011;70537;44.384;0.512;2023-06-26T06:09:35;5.18;;;3.05;;
77788;SDS011;70537;44.384;0.512;2023-06-26T06:12:00;7.35;;;3.63;;
77788;SDS011;70537;44.384;0.512;2023-06-26T06:14:29;10.50;;;3.78;;
77788;SDS011;70537;44.384;0.512;2023-06-26T06:16:55;20.75;;;4.82;;
77788;SDS011;70537;44.384;0.512;2023-06-26T06:19:21;3.88;;;2.83;;
77788;SDS011;70537;44.384;0.512;2023-06-26T06:21:47;6.93;;;3.45;;
77788;SDS011;70537;44.384;0.512;2023-06-26T06:24:13;9.55;;;2.40;;
77788;SDS011;70537;44.384;0.512;2023-06-26T06:26:39;6.55;;;2.65;;
77788;SDS011;70537;44.384;0.512;2023-06-26T06:29:04;2.83;;;2.53;;
77788;SDS011;70537;44.384;0.512;2023-06-26T06:31:31;6.45;;;2.97;;
77788;SDS011;70537;44.384;0.512;2023-06-26T06:33:56;4.13;;;2.58;;
77788;SDS011;70537;44.384;0.512;2023-06-26T06:36:22;4.55;;;2.38;;
77788;SDS011;70537;44.384;0.512;2023-06-26T06:38:47;7.30;;;2.45;;
77788;SDS011;70537;44.384;0.512;2023-06-26T06:41:13;6.05;;;3.03;;
77788;SDS011;70537;44.384;0.512;2023-06-26T06:43:38;6.72;;;2.42;;
77788;SDS011;70537;44.384;0.512;2023-06-26T06:46:04;5.68;;;2.47;;
77788;SDS011;70537;44.384;0.512;2023-06-26T06:48:30;6.13;;;2.13;;
77788;SDS011;70537;44.384;0.512;2023-06-26T06:50:57;3.95;;;2.35;;
77788;SDS011;70537;44.384;0.512;2023-06-26T06:53:22;8.07;;;3.97;;
77788;SDS011;70537;44.384;0.512;2023-06-26T06:55:48;3.13;;;2.53;;
77788;SDS011;70537;44.384;0.512;2023-06-26T06:58:14;9.70;;;2.55;;
77788;SDS011;70537;44.384;0.512;2023-06-26T07:00:42;6.18;;;2.28;;
77788;SDS011;70537;44.384;0.512;2023-06-26T07:03:08;4.70;;;2.58;;
77788;SDS011;70537;44.384;0.512;2023-06-26T07:05:33;16.55;;;2.63;;
77788;SDS011;70537;44.384;0.512;2023-06-26T07:07:59;3.92;;;2.13;;
77788;SDS011;70537;44.384;0.512;2023-06-26T07:10:24;7.90;;;2.88;;
77788;SDS011;70537;44.384;0.512;2023-06-26T07:12:50;10.68;;;3.08;;
77788;SDS011;70537;44.384;0.512;2023-06-26T07:15:16;4.05;;;2.42;;
77788;SDS011;70537;44.384;0.512;2023-06-26T07:17:41;3.20;;;2.20;;
77788;SDS011;70537;44.384;0.512;2023-06-26T07:20:07;6.22;;;1.88;;
77788;SDS011;70537;44.384;0.512;2023-06-26T07:22:36;4.32;;;2.25;;
77788;SDS011;70537;44.384;0.512;2023-06-26T07:25:02;5.15;;;2.78;;
77788;SDS011;70537;44.384;0.512;2023-06-26T07:27:29;19.95;;;5.25;;
77788;SDS011;70537;44.384;0.512;2023-06-26T07:29:54;13.18;;;3.90;;
77788;SDS011;70537;44.384;0.512;2023-06-26T07:32:20;8.68;;;3.53;;
77788;SDS011;70537;44.384;0.512;2023-06-26T07:34:45;5.55;;;2.08;;
77788;SDS011;70537;44.384;0.512;2023-06-26T07:37:11;5.10;;;1.80;;
77788;SDS011;70537;44.384;0.512;2023-06-26T07:39:36;8.32;;;2.10;;
77788;SDS011;70537;44.384;0.512;2023-06-26T07:42:02;14.15;;;3.90;;
77788;SDS011;70537;44.384;0.512;2023-06-26T07:44:27;11.90;;;3.83;;
77788;SDS011;70537;44.384;0.512;2023-06-26T07:46:53;5.43;;;2.00;;
77788;SDS011;70537;44.384;0.512;2023-06-26T07:49:18;4.68;;;2.20;;
77788;SDS011;70537;44.384;0.512;2023-06-26T07:51:44;3.78;;;1.77;;
77788;SDS011;70537;44.384;0.512;2023-06-26T07:54:09;7.72;;;1.80;;
77788;SDS011;70537;44.384;0.512;2023-06-26T07:56:35;6.15;;;2.63;;
77788;SDS011;70537;44.384;0.512;2023-06-26T07:59:24;3.53;;;1.65;;
77788;SDS011;70537;44.384;0.512;2023-06-26T08:01:51;5.55;;;1.92;;
77788;SDS011;70537;44.384;0.512;2023-06-26T08:04:18;5.03;;;1.60;;
77788;SDS011;70537;44.384;0.512;2023-06-26T08:06:45;3.00;;;1.65;;
77788;SDS011;70537;44.384;0.512;2023-06-26T08:09:15;6.45;;;1.92;;
77788;SDS011;70537;44.384;0.512;2023-06-26T08:11:42;2.40;;;1.20;;
77788;SDS011;70537;44.384;0.512;2023-06-26T08:14:07;4.32;;;1.38;;
77788;SDS011;70537;44.384;0.512;2023-06-26T08:16:33;4.90;;;2.10;;
77788;SDS011;70537;44.384;0.512;2023-06-26T08:18:58;2.65;;;1.73;;
77788;SDS011;70537;44.384;0.512;2023-06-26T08:21:24;6.13;;;2.13;;
77788;SDS011;70537;44.384;0.512;2023-06-26T08:23:50;22.60;;;4.90;;
77788;SDS011;70537;44.384;0.512;2023-06-26T08:26:15;7.00;;;2.28;;
77788;SDS011;70537;44.384;0.512;2023-06-26T08:28:41;2.72;;;1.75;;
77788;SDS011;70537;44.384;0.512;2023-06-26T08:31:07;6.60;;;1.75;;
77788;SDS011;70537;44.384;0.512;2023-06-26T08:33:32;3.35;;;1.45;;
77788;SDS011;70537;44.384;0.512;2023-06-26T08:35:58;4.40;;;1.90;;
77788;SDS011;70537;44.384;0.512;2023-06-26T08:38:23;2.42;;;1.48;;
77788;SDS011;70537;44.384;0.512;2023-06-26T08:40:49;2.03;;;1.60;;
77788;SDS011;70537;44.384;0.512;2023-06-26T08:43:14;3.05;;;1.50;;
77788;SDS011;70537;44.384;0.512;2023-06-26T08:45:40;3.60;;;1.30;;
77788;SDS011;70537;44.384;0.512;2023-06-26T08:48:09;4.43;;;1.70;;
77788;SDS011;70537;44.384;0.512;2023-06-26T08:50:35;5.30;;;0.95;;
77788;SDS011;70537;44.384;0.512;2023-06-26T08:53:09;3.28;;;1.25;;
77788;SDS011;70537;44.384;0.512;2023-06-26T08:55:39;4.18;;;1.45;;
77788;SDS011;70537;44.384;0.512;2023-06-26T08:58:07;2.92;;;1.40;;
77788;SDS011;70537;44.384;0.512;2023-06-26T09:00:32;7.78;;;1.65;;
77788;SDS011;70537;44.384;0.512;2023-06-26T09:02:59;4.47;;;1.67;;
77788;SDS011;70537;44.384;0.512;2023-06-26T09:05:25;4.03;;;2.05;;
77788;SDS011;70537;44.384;0.512;2023-06-26T09:07:57;3.40;;;2.20;;
77788;SDS011;70537;44.384;0.512;2023-06-26T09:10:23;5.57;;;1.98;;
77788;SDS011;70537;44.384;0.512;2023-06-26T09:12:49;5.13;;;2.00;;
77788;SDS011;70537;44.384;0.512;2023-06-26T09:15:15;3.15;;;1.95;;
77788;SDS011;70537;44.384;0.512;2023-06-26T09:17:44;2.65;;;1.65;;
77788;SDS011;70537;44.384;0.512;2023-06-26T09:20:09;2.28;;;1.40;;
77788;SDS011;70537;44.384;0.512;2023-06-26T09:22:36;2.40;;;1.40;;
77788;SDS011;70537;44.384;0.512;2023-06-26T09:25:04;5.72;;;2.03;;
77788;SDS011;70537;44.384;0.512;2023-06-26T09:27:30;4.35;;;1.70;;
77788;SDS011;70537;44.384;0.512;2023-06-26T09:29:56;3.50;;;1.77;;
77788;SDS011;70537;44.384;0.512;2023-06-26T09:32:26;2.47;;;1.75;;
77788;SDS011;70537;44.384;0.512;2023-06-26T09:34:55;5.65;;;2.05;;
77788;SDS011;70537;44.384;0.512;2023-06-26T09:37:21;7.00;;;3.03;;
77788;SDS011;70537;44.384;0.512;2023-06-26T09:39:47;5.85;;;1.90;;
77788;SDS011;70537;44.384;0.512;2023-06-26T09:42:13;2.92;;;2.10;;
77788;SDS011;70537;44.384;0.512;2023-06-26T09:44:43;5.03;;;2.00;;
77788;SDS011;70537;44.384;0.512;2023-06-26T09:47:12;2.70;;;1.98;;
77788;SDS011;70537;44.384;0.512;2023-06-26T09:49:41;5.70;;;2.15;;
77788;SDS011;70537;44.384;0.512;2023-06-26T09:52:08;3.20;;;1.60;;
77788;SDS011;70537;44.384;0.512;2023-06-26T09:54:33;3.17;;;1.73;;
77788;SDS011;70537;44.384;0.512;2023-06-26T09:57:08;4.88;;;1.50;;
77788;SDS011;70537;44.384;0.512;2023-06-26T09:59:34;5.15;;;1.88;;
77788;SDS011;70537;44.384;0.512;2023-06-26T10:02:01;2.58;;;1.70;;
77788;SDS011;70537;44.384;0.512;2023-06-26T10:04:27;2.63;;;1.92;;
77788;SDS011;70537;44.384;0.512;2023-06-26T10:06:53;3.15;;;1.80;;
77788;SDS011;70537;44.384;0.512;2023-06-26T10:09:21;4.68;;;1.65;;
77788;SDS011;70537;44.384;0.512;2023-06-26T10:12:03;1.98;;;1.73;;
77788;SDS011;70537;44.384;0.512;2023-06-26T10:14:34;4.47;;;1.80;;
77788;SDS011;70537;44.384;0.512;2023-06-26T10:17:03;1.95;;;1.45;;
77788;SDS011;70537;44.384;0.512;2023-06-26T10:19:32;6.15;;;1.60;;
77788;SDS011;70537;44.384;0.512;2023-06-26T10:24:26;2.67;;;1.80;;
77788;SDS011;70537;44.384;0.512;2023-06-26T10:26:57;4.30;;;1.52;;
77788;SDS011;70537;44.384;0.512;2023-06-26T10:29:39;2.70;;;1.77;;
77788;SDS011;70537;44.384;0.512;2023-06-26T10:32:05;2.47;;;1.40;;
77788;SDS011;70537;44.384;0.512;2023-06-26T10:34:33;3.65;;;1.55;;
77788;SDS011;70537;44.384;0.512;2023-06-26T10:37:00;2.63;;;1.90;;
77788;SDS011;70537;44.384;0.512;2023-06-26T10:39:32;2.55;;;1.42;;
77788;SDS011;70537;44.384;0.512;2023-06-26T10:42:28;2.70;;;1.98;;
77788;SDS011;70537;44.384;0.512;2023-06-26T10:45:08;1.75;;;1.02;;
77788;SDS011;70537;44.384;0.512;2023-06-26T10:47:36;2.38;;;1.33;;
77788;SDS011;70537;44.384;0.512;2023-06-26T10:55:36;5.05;;;1.35;;
77788;SDS011;70537;44.384;0.512;2023-06-26T10:58:10;5.53;;;1.85;;
77788;SDS011;70537;44.384;0.512;2023-06-26T11:03:49;2.05;;;1.10;;
77788;SDS011;70537;44.384;0.512;2023-06-26T11:06:26;2.03;;;1.65;;
77788;SDS011;70537;44.384;0.512;2023-06-26T11:08:53;2.85;;;1.67;;
77788;SDS011;70537;44.384;0.512;2023-06-26T11:14:24;2.10;;;1.30;;
77788;SDS011;70537;44.384;0.512;2023-06-26T11:16:50;3.90;;;1.90;;
77788;SDS011;70537;44.384;0.512;2023-06-26T11:19:16;3.42;;;2.10;;
77788;SDS011;70537;44.384;0.512;2023-06-26T11:21:43;3.17;;;2.28;;
77788;SDS011;70537;44.384;0.512;2023-06-26T11:24:09;1.92;;;1.65;;
77788;SDS011;70537;44.384;0.512;2023-06-26T11:26:40;3.75;;;1.70;;
77788;SDS011;70537;44.384;0.512;2023-06-26T11:29:07;3.00;;;1.85;;
77788;SDS011;70537;44.384;0.512;2023-06-26T11:31:36;4.97;;;1.40;;
77788;SDS011;70537;44.384;0.512;2023-06-26T11:34:04;3.10;;;1.95;;
77788;SDS011;70537;44.384;0.512;2023-06-26T11:36:30;2.30;;;1.75;;
77788;SDS011;70537;44.384;0.512;2023-06-26T11:38:57;4.07;;;1.67;;
77788;SDS011;70537;44.384;0.512;2023-06-26T11:41:25;4.40;;;2.20;;
77788;SDS011;70537;44.384;0.512;2023-06-26T11:43:52;1.60;;;1.33;;
77788;SDS011;70537;44.384;0.512;2023-06-26T11:46:18;2.72;;;1.40;;
77788;SDS011;70537;44.384;0.512;2023-06-26T11:48:45;2.75;;;1.40;;
77788;SDS011;70537;44.384;0.512;2023-06-26T11:51:12;2.38;;;1.70;;
77788;SDS011;70537;44.384;0.512;2023-06-26T11:53:40;2.80;;;1.65;;
77788;SDS011;70537;44.384;0.512;2023-06-26T11:56:07;4.43;;;2.63;;
77788;SDS011;70537;44.384;0.512;2023-06-26T11:58:59;4.18;;;1.83;;
77788;SDS011;70537;44.384;0.512;2023-06-26T12:01:26;4.43;;;1.90;;
77788;SDS011;70537;44.384;0.512;2023-06-26T12:03:58;3.65;;;1.60;;
77788;SDS011;70537;44.384;0.512;2023-06-26T12:06:26;2.47;;;1.75;;
77788;SDS011;70537;44.384;0.512;2023-06-26T12:08:53;2.30;;;2.10;;
77788;SDS011;70537;44.384;0.512;2023-06-26T12:11:19;1.95;;;1.67;;
77788;SDS011;70537;44.384;0.512;2023-06-26T12:13:46;3.08;;;1.75;;
77788;SDS011;70537;44.384;0.512;2023-06-26T12:16:12;3.42;;;1.70;;
77788;SDS011;70537;44.384;0.512;2023-06-26T12:18:39;5.10;;;1.60;;
77788;SDS011;70537;44.384;0.512;2023-06-26T12:21:05;1.27;;;1.15;;
77788;SDS011;70537;44.384;0.512;2023-06-26T12:23:38;7.55;;;1.75;;
77788;SDS011;70537;44.384;0.512;2023-06-26T12:26:20;2.42;;;1.33;;
77788;SDS011;70537;44.384;0.512;2023-06-26T12:28:46;4.72;;;2.22;;
77788;SDS011;70537;44.384;0.512;2023-06-26T12:31:16;3.97;;;1.55;;
77788;SDS011;70537;44.384;0.512;2023-06-26T12:33:45;1.75;;;1.23;;
77788;SDS011;70537;44.384;0.512;2023-06-26T12:36:11;5.53;;;1.65;;
77788;SDS011;70537;44.384;0.512;2023-06-26T12:38:40;2.05;;;1.60;;
77788;SDS011;70537;44.384;0.512;2023-06-26T12:41:13;2.17;;;1.30;;
77788;SDS011;70537;44.384;0.512;2023-06-26T12:43:42;7.93;;;1.80;;
77788;SDS011;70537;44.384;0.512;2023-06-26T12:46:08;6.07;;;2.03;;
77788;SDS011;70537;44.384;0.512;2023-06-26T12:48:37;1.83;;;1.30;;
77788;SDS011;70537;44.384;0.512;2023-06-26T12:51:09;1.65;;;1.55;;
77788;SDS011;70537;44.384;0.512;2023-06-26T12:53:35;4.22;;;1.70;;
77788;SDS011;70537;44.384;0.512;2023-06-26T12:56:00;1.77;;;1.23;;
77788;SDS011;70537;44.384;0.512;2023-06-26T12:58:26;4.60;;;1.40;;
77788;SDS011;70537;44.384;0.512;2023-06-26T13:00:51;2.88;;;1.30;;
77788;SDS011;70537;44.384;0.512;2023-06-26T13:03:19;4.30;;;1.60;;
77788;SDS011;70537;44.384;0.512;2023-06-26T13:05:45;3.85;;;1.63;;
77788;SDS011;70537;44.384;0.512;2023-06-26T13:08:12;1.63;;;1.30;;
77788;SDS011;70537;44.384;0.512;2023-06-26T13:10:37;2.92;;;1.42;;
77788;SDS011;70537;44.384;0.512;2023-06-26T13:13:04;1.75;;;1.58;;
77788;SDS011;70537;44.384;0.512;2023-06-26T13:15:30;2.08;;;1.25;;
77788;SDS011;70537;44.384;0.512;2023-06-26T13:17:55;1.70;;;1.60;;
77788;SDS011;70537;44.384;0.512;2023-06-26T13:20:21;1.65;;;1.55;;
77788;SDS011;70537;44.384;0.512;2023-06-26T13:22:46;2.13;;;1.40;;
77788;SDS011;70537;44.384;0.512;2023-06-26T13:25:12;1.48;;;1.13;;
77788;SDS011;70537;44.384;0.512;2023-06-26T13:27:38;5.57;;;1.20;;
77788;SDS011;70537;44.384;0.512;2023-06-26T13:30:03;2.40;;;1.40;;
77788;SDS011;70537;44.384;0.512;2023-06-26T13:32:29;9.52;;;3.10;;
77788;SDS011;70537;44.384;0.512;2023-06-26T13:34:55;2.15;;;1.10;;
77788;SDS011;70537;44.384;0.512;2023-06-26T13:37:20;2.95;;;1.33;;
77788;SDS011;70537;44.384;0.512;2023-06-26T13:39:46;2.13;;;1.48;;
77788;SDS011;70537;44.384;0.512;2023-06-26T13:42:15;7.60;;;2.67;;
77788;SDS011;70537;44.384;0.512;2023-06-26T13:44:41;2.60;;;1.52;;
77788;SDS011;70537;44.384;0.512;2023-06-26T13:47:07;2.67;;;1.40;;
77788;SDS011;70537;44.384;0.512;2023-06-26T13:49:33;2.15;;;1.40;;
77788;SDS011;70537;44.384;0.512;2023-06-26T13:51:58;1.20;;;1.10;;
77788;SDS011;70537;44.384;0.512;2023-06-26T13:54:24;3.50;;;1.73;;
77788;SDS011;70537;44.384;0.512;2023-06-26T13:56:49;2.00;;;1.50;;
77788;SDS011;70537;44.384;0.512;2023-06-26T13:59:15;2.55;;;1.80;;
77788;SDS011;70537;44.384;0.512;2023-06-26T14:01:40;1.98;;;1.58;;
77788;SDS011;70537;44.384;0.512;2023-06-26T14:06:33;1.80;;;1.70;;
77788;SDS011;70537;44.384;0.512;2023-06-26T14:08:59;9.43;;;1.52;;
77788;SDS011;70537;44.384;0.512;2023-06-26T14:11:25;2.55;;;1.85;;
77788;SDS011;70537;44.384;0.512;2023-06-26T14:13:51;2.70;;;0.93;;
77788;SDS011;70537;44.384;0.512;2023-06-26T14:16:16;3.33;;;1.60;;
77788;SDS011;70537;44.384;0.512;2023-06-26T14:18:43;2.40;;;1.38;;
77788;SDS011;70537;44.384;0.512;2023-06-26T14:21:09;2.17;;;1.77;;
77788;SDS011;70537;44.384;0.512;2023-06-26T14:23:34;2.88;;;2.05;;
77788;SDS011;70537;44.384;0.512;2023-06-26T14:26:00;2.88;;;2.13;;
77788;SDS011;70537;44.384;0.512;2023-06-26T14:28:26;1.75;;;1.60;;
77788;SDS011;70537;44.384;0.512;2023-06-26T14:30:51;2.63;;;2.40;;
77788;SDS011;70537;44.384;0.512;2023-06-26T14:33:17;28.60;;;3.38;;
77788;SDS011;70537;44.384;0.512;2023-06-26T14:35:42;3.25;;;2.25;;
77788;SDS011;70537;44.384;0.512;2023-06-26T14:38:08;2.22;;;2.03;;
77788;SDS011;70537;44.384;0.512;2023-06-26T14:40:33;3.55;;;2.22;;
77788;SDS011;70537;44.384;0.512;2023-06-26T14:42:59;1.70;;;1.60;;
77788;SDS011;70537;44.384;0.512;2023-06-26T14:45:24;3.95;;;1.55;;
77788;SDS011;70537;44.384;0.512;2023-06-26T14:47:50;3.72;;;1.85;;
77788;SDS011;70537;44.384;0.512;2023-06-26T14:50:15;2.08;;;1.88;;
77788;SDS011;70537;44.384;0.512;2023-06-26T14:52:41;1.92;;;1.45;;
77788;SDS011;70537;44.384;0.512;2023-06-26T14:55:07;4.22;;;1.80;;
77788;SDS011;70537;44.384;0.512;2023-06-26T14:57:32;2.20;;;1.95;;
77788;SDS011;70537;44.384;0.512;2023-06-26T14:59:58;1.90;;;1.67;;
77788;SDS011;70537;44.384;0.512;2023-06-26T15:02:23;7.00;;;2.13;;
77788;SDS011;70537;44.384;0.512;2023-06-26T15:04:49;3.03;;;2.33;;
77788;SDS011;70537;44.384;0.512;2023-06-26T15:07:14;5.90;;;2.50;;